createdAt,value
2023-04-21T03:59:01.496Z,20.97
2023-04-21T04:00:01.568Z,20.91
2023-04-21T04:01:01.471Z,20.93
2023-04-21T04:02:01.513Z,20.98
2023-04-21T04:03:01.607Z,21.03
2023-04-21T04:04:01.617Z,20.96
2023-04-21T04:05:01.477Z,21.01
2023-04-21T04:06:01.439Z,21.03
2023-04-21T04:07:01.398Z,20.97
2023-04-21T04:08:01.402Z,21.00
2023-04-21T04:09:01.420Z,21.01
2023-04-21T04:10:01.416Z,21.03
2023-04-21T04:11:01.433Z,21.08
2023-04-21T04:12:01.347Z,21.04
2023-04-21T04:13:01.337Z,21.06
2023-04-21T04:14:01.373Z,20.96
2023-04-21T04:15:01.610Z,21.04
2023-04-21T04:16:01.489Z,21.01
2023-04-21T04:17:01.353Z,21.11
2023-04-21T04:18:01.323Z,21.00
2023-04-21T04:19:01.339Z,21.15
2023-04-21T04:20:01.327Z,21.15
2023-04-21T04:21:01.310Z,21.16
2023-04-21T04:22:01.378Z,21.15
2023-04-21T04:23:01.300Z,21.23
2023-04-21T04:24:01.308Z,21.21
2023-04-21T04:25:01.335Z,21.21
2023-04-21T04:26:01.348Z,21.31
2023-04-21T04:27:01.355Z,21.31
2023-04-21T04:28:01.300Z,21.27
2023-04-21T04:29:01.350Z,21.27
2023-04-21T04:30:01.289Z,21.34
2023-04-21T04:31:01.411Z,21.36
2023-04-21T04:32:01.287Z,21.36
2023-04-21T04:33:01.267Z,21.31
2023-04-21T04:34:01.270Z,21.34
2023-04-21T04:35:01.248Z,21.34
2023-04-21T04:36:01.288Z,21.40
2023-04-21T04:37:01.234Z,21.43
2023-04-21T04:38:01.240Z,21.38
2023-04-21T04:39:01.228Z,21.43
2023-04-21T04:40:01.250Z,21.46
2023-04-21T04:41:01.234Z,21.48
2023-04-21T04:42:01.295Z,21.53
2023-04-21T04:43:01.222Z,21.46
2023-04-21T04:44:01.228Z,21.56
2023-04-21T04:45:01.215Z,21.56
2023-04-21T04:46:01.203Z,21.55
2023-04-21T04:47:01.372Z,21.56
2023-04-21T04:48:01.281Z,21.55
2023-04-21T04:49:01.212Z,21.61
2023-04-21T04:50:01.193Z,21.59
2023-04-21T04:51:01.174Z,21.64
2023-04-21T04:52:01.191Z,21.61
2023-04-21T04:53:01.216Z,21.59
2023-04-21T04:54:01.186Z,21.64
2023-04-21T04:55:01.171Z,21.61
2023-04-21T04:56:02.080Z,21.70
2023-04-21T04:57:01.178Z,21.71
2023-04-21T04:58:01.219Z,21.71
2023-04-21T04:59:01.202Z,21.74
2023-04-21T05:00:01.251Z,21.73
2023-04-21T05:01:01.158Z,21.71
2023-04-21T05:02:01.262Z,21.71
2023-04-21T05:03:01.433Z,21.78
2023-04-21T05:04:01.287Z,21.73
2023-04-21T05:05:01.263Z,21.78
2023-04-21T05:06:01.135Z,21.78
2023-04-21T05:07:01.143Z,21.83
2023-04-21T05:08:01.153Z,21.90
2023-04-21T05:09:01.139Z,21.93
2023-04-21T05:10:01.133Z,21.93
2023-04-21T05:11:01.133Z,21.85
2023-04-21T05:12:01.114Z,21.93
2023-04-21T05:13:01.119Z,21.90
2023-04-21T05:14:01.114Z,21.97
2023-04-21T05:15:01.131Z,21.99
2023-04-21T05:16:01.107Z,21.89
2023-04-21T05:17:01.228Z,21.92
2023-04-21T05:18:01.171Z,21.97
2023-04-21T05:19:01.112Z,21.94
2023-04-21T05:20:01.103Z,21.99
2023-04-21T05:21:01.083Z,22.02
2023-04-21T05:22:01.105Z,22.02
2023-04-21T05:23:01.087Z,22.07
2023-04-21T05:24:01.174Z,22.07
2023-04-21T05:25:01.070Z,22.05
2023-04-21T05:26:04.017Z,22.09
2023-04-21T05:27:01.081Z,22.07
2023-04-21T05:28:01.070Z,22.09
2023-04-21T05:29:01.128Z,22.14
2023-04-21T05:30:01.079Z,22.11
2023-04-21T05:31:01.056Z,22.05
2023-04-21T05:32:01.098Z,22.12
2023-04-21T05:33:01.050Z,22.14
2023-04-21T05:34:01.035Z,22.09
2023-04-21T05:35:01.086Z,22.12
2023-04-21T05:36:01.070Z,22.15
2023-04-21T05:37:01.085Z,22.14
2023-04-21T05:38:01.054Z,22.07
2023-04-21T05:39:01.060Z,22.08
2023-04-21T05:40:01.053Z,22.12
2023-04-21T05:41:01.098Z,22.24
2023-04-21T05:42:01.034Z,22.12
2023-04-21T05:43:01.056Z,22.12
2023-04-21T05:44:01.117Z,22.22
2023-04-21T05:45:01.086Z,22.12
2023-04-21T05:46:01.210Z,22.22
2023-04-21T05:47:01.033Z,22.14
2023-04-21T05:48:01.088Z,22.07
2023-04-21T05:49:01.005Z,22.09
2023-04-21T05:50:01.077Z,22.27
2023-04-21T05:51:01.366Z,22.22
2023-04-21T05:52:01.141Z,22.31
2023-04-21T05:53:01.244Z,22.23
2023-04-21T05:54:00.994Z,22.27
2023-04-21T05:55:01.010Z,22.27
2023-04-21T05:56:01.030Z,22.24
2023-04-21T05:57:01.203Z,22.34
2023-04-21T05:58:00.992Z,22.36
2023-04-21T05:59:01.073Z,22.33
2023-04-21T06:00:00.971Z,22.36
2023-04-21T06:01:01.631Z,22.38
2023-04-21T06:02:01.023Z,22.44
2023-04-21T06:03:01.065Z,22.45
2023-04-21T06:04:01.202Z,22.48
2023-04-21T06:05:01.227Z,22.46
2023-04-21T06:06:00.957Z,22.44
2023-04-21T06:07:00.958Z,22.49
2023-04-21T06:08:00.963Z,22.54
2023-04-21T06:09:00.925Z,22.63
2023-04-21T06:10:00.957Z,22.63
2023-04-21T06:11:00.922Z,22.57
2023-04-21T06:12:00.901Z,22.60
2023-04-21T06:13:00.954Z,22.69
2023-04-21T06:14:00.907Z,22.82
2023-04-21T06:15:00.924Z,22.70
2023-04-21T06:16:00.967Z,22.81
2023-04-21T06:17:00.906Z,22.81
2023-04-21T06:18:01.127Z,22.79
2023-04-21T06:19:00.948Z,22.85
2023-04-21T06:20:00.883Z,22.86
2023-04-21T06:21:00.902Z,22.88
2023-04-21T06:22:00.922Z,22.88
2023-04-21T06:23:00.941Z,22.96
2023-04-21T06:24:00.882Z,22.99
2023-04-21T06:25:00.909Z,23.01
2023-04-21T06:26:01.057Z,23.00
2023-04-21T06:27:00.868Z,23.01
2023-04-21T06:28:00.912Z,23.00
2023-04-21T06:29:00.881Z,23.01
2023-04-21T06:30:00.923Z,23.07
2023-04-21T06:31:00.862Z,23.04
2023-04-21T06:32:00.942Z,23.12
2023-04-21T06:33:00.941Z,23.10
2023-04-21T06:34:00.857Z,23.19
2023-04-21T06:35:00.842Z,23.26
2023-04-21T06:36:00.851Z,23.25
2023-04-21T06:37:00.849Z,23.28
2023-04-21T06:38:00.848Z,23.26
2023-04-21T06:39:00.997Z,23.28
2023-04-21T06:41:33.442Z,23.35
2023-04-21T06:42:33.442Z,23.38
2023-04-21T06:43:33.436Z,23.42
2023-04-21T06:44:33.406Z,23.47
2023-04-21T06:45:33.446Z,23.44
2023-04-21T06:46:33.455Z,23.59
2023-04-21T06:47:33.433Z,23.57
2023-04-21T06:48:33.392Z,23.59
2023-04-21T06:49:33.507Z,23.57
2023-04-21T06:50:33.406Z,23.60
2023-04-21T06:51:33.394Z,23.70
2023-04-21T06:52:33.527Z,23.72
2023-04-21T06:53:33.404Z,23.70
2023-04-21T06:54:33.453Z,23.71
2023-04-21T06:55:33.399Z,23.75
2023-04-21T06:56:33.402Z,23.77
2023-04-21T06:57:33.410Z,23.84
2023-04-21T06:58:33.447Z,23.77
2023-04-21T06:59:33.393Z,23.99
2023-04-21T07:00:33.518Z,23.94
2023-04-21T07:01:33.413Z,23.97
2023-04-21T07:02:33.586Z,23.99
2023-04-21T07:03:33.500Z,23.93
2023-04-21T07:04:33.507Z,24.00
2023-04-21T07:05:33.387Z,24.11
2023-04-21T07:06:33.410Z,24.08
2023-04-21T07:07:33.395Z,24.11
2023-04-21T07:08:33.385Z,24.09
2023-04-21T07:09:33.380Z,24.18
2023-04-21T07:10:33.436Z,24.15
2023-04-21T07:11:33.386Z,24.22
2023-04-21T07:12:33.524Z,24.24
2023-04-21T07:13:33.364Z,24.24
2023-04-21T07:14:33.361Z,24.18
2023-04-21T07:15:33.387Z,24.27
2023-04-21T07:16:33.384Z,24.32
2023-04-21T07:17:33.530Z,24.32
2023-04-21T07:18:33.378Z,24.39
2023-04-21T07:19:33.392Z,24.36
2023-04-21T07:20:33.399Z,24.40
2023-04-21T07:21:33.395Z,24.37
2023-04-21T07:22:33.401Z,24.48
2023-04-21T07:23:33.361Z,24.52
2023-04-21T07:24:33.357Z,24.48
2023-04-21T07:25:33.414Z,24.58
2023-04-21T07:26:33.695Z,24.63
2023-04-21T07:27:33.349Z,24.63
2023-04-21T07:28:33.359Z,24.61
2023-04-21T07:29:33.370Z,24.61
2023-04-21T07:30:33.369Z,24.59
2023-04-21T07:31:33.638Z,24.74
2023-04-21T07:32:33.364Z,24.67
2023-04-21T07:33:33.372Z,24.75
2023-04-21T07:34:33.473Z,24.77
2023-04-21T07:35:33.370Z,24.78
2023-04-21T07:36:33.348Z,24.82
2023-04-21T07:37:33.452Z,24.74
2023-04-21T07:38:34.735Z,24.78
2023-04-21T07:39:33.364Z,24.85
2023-04-21T07:40:33.323Z,24.86
2023-04-21T07:41:33.414Z,24.89
2023-04-21T07:42:33.495Z,24.96
2023-04-21T07:43:33.323Z,24.94
2023-04-21T07:44:33.347Z,24.96
2023-04-21T07:45:33.338Z,24.96
2023-04-21T07:46:33.349Z,24.97
2023-04-21T07:47:34.294Z,25.01
2023-04-21T07:48:33.414Z,25.07
2023-04-21T07:49:33.379Z,25.05
2023-04-21T07:50:33.386Z,25.09
2023-04-21T07:51:33.917Z,25.08
2023-04-21T07:52:33.381Z,25.12
2023-04-21T07:53:33.314Z,25.11
2023-04-21T07:54:33.536Z,25.11
2023-04-21T07:55:33.361Z,25.17
2023-04-21T07:56:33.416Z,25.09
2023-04-21T07:57:33.826Z,25.12
2023-04-21T07:58:33.329Z,25.17
2023-04-21T07:59:33.407Z,25.20
2023-04-21T08:00:33.358Z,25.22
2023-04-21T08:01:33.318Z,25.17
2023-04-21T08:02:33.395Z,25.17
2023-04-21T08:03:33.654Z,25.29
2023-04-21T08:04:33.837Z,25.27
2023-04-21T08:05:35.751Z,25.24
2023-04-21T08:06:33.521Z,25.27
2023-04-21T08:07:33.494Z,25.33
2023-04-21T08:08:33.363Z,25.34
2023-04-21T08:09:33.318Z,25.32
2023-04-21T08:10:33.368Z,25.32
2023-04-21T08:11:33.313Z,25.37
2023-04-21T08:12:34.118Z,25.34
2023-04-21T08:13:33.415Z,25.38
2023-04-21T08:14:33.415Z,25.38
2023-04-21T08:15:33.357Z,25.42
2023-04-21T08:16:33.558Z,25.42
2023-04-21T08:17:33.445Z,25.44
2023-04-21T08:18:33.326Z,25.34
2023-04-21T08:19:33.338Z,25.37
2023-04-21T08:20:33.326Z,25.47
2023-04-21T08:21:33.438Z,25.48
2023-04-21T08:22:33.443Z,25.44
2023-04-21T08:23:33.469Z,25.42
2023-04-21T08:24:33.301Z,25.51
2023-04-21T08:25:33.330Z,25.42
2023-04-21T08:26:33.364Z,25.39
2023-04-21T08:27:33.366Z,25.42
2023-04-21T08:28:33.349Z,25.60
2023-04-21T08:29:33.410Z,25.52
2023-04-21T08:30:33.445Z,25.56
2023-04-21T08:31:33.354Z,25.49
2023-04-21T08:32:33.334Z,25.62
2023-04-21T08:33:33.342Z,25.63
2023-04-21T08:34:33.344Z,25.59
2023-04-21T08:35:33.294Z,25.57
2023-04-21T08:36:33.284Z,25.56
2023-04-21T08:37:33.288Z,25.56
2023-04-21T08:38:33.297Z,25.67
2023-04-21T08:39:33.304Z,25.71
2023-04-21T08:40:33.313Z,25.71
2023-04-21T08:41:33.295Z,25.67
2023-04-21T08:42:33.316Z,25.75
2023-04-21T08:43:33.416Z,25.67
2023-04-21T08:44:33.347Z,25.70
2023-04-21T08:45:33.355Z,25.78
2023-04-21T08:46:33.352Z,25.75
2023-04-21T08:47:33.550Z,25.70
2023-04-21T08:48:33.290Z,25.78
2023-04-21T08:49:33.292Z,25.74
2023-04-21T08:50:33.281Z,25.82
2023-04-21T08:51:33.352Z,25.78
2023-04-21T08:52:33.284Z,25.85
2023-04-21T08:53:33.313Z,25.75
2023-04-21T08:54:33.302Z,25.84
2023-04-21T08:55:33.291Z,25.82
2023-04-21T08:56:33.281Z,25.81
2023-04-21T08:57:33.341Z,25.78
2023-04-21T08:58:33.311Z,25.81
2023-04-21T08:59:33.291Z,25.84
2023-04-21T09:00:33.355Z,25.82
2023-04-21T09:01:33.355Z,25.86
2023-04-21T09:02:33.411Z,25.86
2023-04-21T09:03:33.543Z,25.79
2023-04-21T09:04:33.512Z,25.86
2023-04-21T09:05:33.770Z,25.89
2023-04-21T09:06:33.398Z,25.88
2023-04-21T09:07:33.287Z,25.89
2023-04-21T09:08:33.287Z,25.91
2023-04-21T09:09:33.388Z,25.89
2023-04-21T09:13:05.904Z,25.97
2023-04-21T09:14:05.884Z,26.03
2023-04-21T09:15:05.889Z,25.97
2023-04-21T09:16:08.470Z,26.00
2023-04-21T09:17:06.153Z,26.01
2023-04-21T09:18:05.928Z,26.00
2023-04-21T09:19:05.900Z,25.97
2023-04-21T09:20:05.922Z,26.07
2023-04-21T09:21:05.983Z,26.11
2023-04-21T09:22:05.933Z,26.11
2023-04-21T09:23:05.895Z,26.11
2023-04-21T09:24:05.944Z,26.11
2023-04-21T09:25:05.919Z,26.11
2023-04-21T09:26:06.060Z,26.17
2023-04-21T09:27:06.068Z,26.09
2023-04-21T09:28:05.911Z,26.04
2023-04-21T09:29:05.981Z,26.17
2023-04-21T09:30:05.876Z,26.17
2023-04-21T09:31:05.958Z,26.19
2023-04-21T09:32:05.992Z,26.07
2023-04-21T09:33:13.345Z,26.23
2023-04-21T09:34:05.984Z,26.32
2023-04-21T09:35:06.023Z,26.30
2023-04-21T09:36:05.914Z,26.22
2023-04-21T09:37:05.931Z,26.24
2023-04-21T09:38:05.947Z,26.27
2023-04-21T09:40:05.902Z,26.34
2023-04-21T09:41:05.958Z,26.35
2023-04-21T09:42:05.958Z,26.37
2023-04-21T09:43:05.922Z,26.41
2023-04-21T09:44:05.888Z,26.31
2023-04-21T09:46:06.300Z,26.39
2023-04-21T09:47:05.990Z,26.39
2023-04-21T09:48:06.741Z,26.38
2023-04-21T09:49:05.885Z,26.45
2023-04-21T09:50:06.948Z,26.47
2023-04-21T09:52:18.464Z,26.53
2023-04-21T09:53:05.914Z,26.44
2023-04-21T09:54:12.964Z,26.53
2023-04-21T09:55:05.944Z,26.49
2023-04-21T09:56:05.894Z,26.59
2023-04-21T09:57:05.944Z,26.64
2023-04-21T09:58:05.911Z,26.56
2023-04-21T09:59:05.952Z,26.56
2023-04-21T10:00:05.919Z,26.63
2023-04-21T10:01:05.927Z,26.72
2023-04-21T10:02:06.083Z,26.69
2023-04-21T10:13:18.100Z,26.93
2023-04-21T10:14:18.177Z,26.91
2023-04-21T10:15:18.082Z,26.89
2023-04-21T10:16:18.073Z,27.05
2023-04-21T10:17:18.351Z,27.04
2023-04-21T10:18:18.038Z,27.05
2023-04-21T10:19:18.303Z,27.01
2023-04-21T10:20:18.039Z,27.09
2023-04-21T10:21:18.038Z,27.12
2023-04-21T10:22:18.060Z,27.21
2023-04-21T10:23:18.047Z,27.15
2023-04-21T10:24:18.305Z,27.28
2023-04-21T10:25:18.024Z,27.23
2023-04-21T10:26:18.076Z,27.28
2023-04-21T10:27:18.031Z,27.37
2023-04-21T10:28:18.086Z,27.33
2023-04-21T10:29:18.447Z,27.31
2023-04-21T10:30:18.205Z,27.43
2023-04-21T10:31:18.208Z,27.38
2023-04-21T10:32:18.074Z,27.48
2023-04-21T10:33:18.090Z,27.46
2023-04-21T10:34:18.233Z,27.57
2023-04-21T10:35:18.097Z,27.62
2023-04-21T10:36:18.044Z,27.57
2023-04-21T10:37:18.090Z,27.61
2023-04-21T10:38:18.053Z,27.66
2023-04-21T10:39:18.242Z,27.72
2023-04-21T10:40:18.059Z,27.76
2023-04-21T10:41:18.063Z,27.79
2023-04-21T10:42:18.105Z,27.87
2023-04-21T10:43:18.044Z,27.87
2023-04-21T10:44:18.446Z,27.89
2023-04-21T10:45:18.110Z,27.94
2023-04-21T10:46:18.107Z,28.05
2023-04-21T10:47:18.128Z,28.02
2023-04-21T10:48:18.085Z,28.05
2023-04-21T10:49:18.059Z,28.08
2023-04-21T10:50:18.092Z,28.16
2023-04-21T10:51:18.072Z,28.27
2023-04-21T10:52:18.085Z,28.17
2023-04-21T10:53:18.087Z,28.33
2023-04-21T10:54:18.412Z,28.27
2023-04-21T10:55:18.148Z,28.31
2023-04-21T10:56:18.079Z,28.41
2023-04-21T10:57:18.092Z,28.42
2023-04-21T10:58:18.122Z,28.57
2023-04-21T10:59:18.093Z,28.63
2023-04-21T11:00:18.072Z,28.53
2023-04-21T11:01:18.137Z,28.58
2023-04-21T11:02:18.313Z,28.70
2023-04-21T11:03:18.381Z,28.75
2023-04-21T11:04:18.354Z,28.73
2023-04-21T11:05:18.110Z,28.80
2023-04-21T11:06:18.107Z,28.86
2023-04-21T11:07:18.097Z,28.95
2023-04-21T11:08:18.120Z,28.94
2023-04-21T11:09:18.184Z,28.97
2023-04-21T11:10:18.143Z,29.05
2023-04-21T11:11:18.125Z,29.02
2023-04-21T11:12:18.228Z,29.13
2023-04-21T11:13:18.237Z,29.14
2023-04-21T11:14:18.312Z,29.23
2023-04-21T11:15:20.094Z,29.36
2023-04-21T11:16:18.221Z,29.33
2023-04-21T11:17:18.366Z,29.43
2023-04-21T11:18:18.785Z,29.52
2023-04-21T11:19:18.175Z,29.55
2023-04-21T11:20:18.157Z,29.57
2023-04-21T11:21:18.494Z,29.61
2023-04-21T11:22:18.194Z,29.67
2023-04-21T11:23:18.151Z,29.70
2023-04-21T11:24:18.440Z,29.67
2023-04-21T11:25:18.166Z,29.79
2023-04-21T11:26:18.214Z,29.95
2023-04-21T11:27:18.172Z,29.87
2023-04-21T11:28:18.190Z,29.95
2023-04-21T11:29:18.164Z,30.03
2023-04-21T11:30:18.215Z,30.06
2023-04-21T11:31:18.226Z,30.16
2023-04-21T11:32:18.186Z,30.07
2023-04-21T11:33:18.253Z,30.28
2023-04-21T11:34:18.365Z,30.22
2023-04-21T11:35:18.230Z,30.34
2023-04-21T11:36:18.214Z,30.40
2023-04-21T11:37:18.192Z,30.42
2023-04-21T11:38:18.216Z,30.51
2023-04-21T11:39:20.176Z,30.59
2023-04-21T11:40:18.234Z,30.57
2023-04-21T11:41:18.213Z,30.66
2023-04-21T11:42:18.216Z,30.66
2023-04-21T11:43:18.226Z,30.64
2023-04-21T11:44:18.224Z,30.71
2023-04-21T11:45:20.491Z,30.71
2023-04-21T11:46:18.337Z,30.79
2023-04-21T11:47:18.254Z,30.81
2023-04-21T11:48:18.262Z,30.82
2023-04-21T11:49:18.279Z,30.85
2023-04-21T11:50:18.251Z,30.82
2023-04-21T11:51:20.017Z,30.86
2023-04-21T11:52:18.278Z,30.93
2023-04-21T11:53:18.285Z,31.00
2023-04-21T11:54:18.305Z,31.00
2023-04-21T11:55:18.294Z,31.01
2023-04-21T11:56:18.272Z,31.07
2023-04-21T11:57:18.306Z,31.01
2023-04-21T11:58:18.346Z,31.07
2023-04-21T11:59:18.304Z,31.12
2023-04-21T12:00:18.294Z,31.19
2023-04-21T12:01:18.307Z,31.37
2023-04-21T12:02:18.409Z,31.37
2023-04-21T12:03:18.480Z,31.41
2023-04-21T12:04:18.469Z,31.47
2023-04-21T12:05:18.352Z,31.58
2023-04-21T12:06:18.385Z,31.60
2023-04-21T12:07:18.367Z,31.70
2023-04-21T12:08:18.348Z,31.70
2023-04-21T12:09:18.344Z,31.68
2023-04-21T12:10:18.324Z,31.86
2023-04-21T12:11:18.387Z,31.88
2023-04-21T12:12:18.361Z,32.01
2023-04-21T12:13:18.388Z,32.01
2023-04-21T12:14:18.378Z,32.16
2023-04-21T12:15:18.394Z,32.23
2023-04-21T12:16:18.414Z,32.31
2023-04-21T12:17:18.399Z,32.31
2023-04-21T12:18:18.419Z,32.47
2023-04-21T12:19:18.379Z,32.57
2023-04-21T12:20:18.411Z,32.61
2023-04-21T12:21:18.407Z,32.75
2023-04-21T12:22:18.475Z,32.81
2023-04-21T12:23:18.407Z,32.83
2023-04-21T12:24:18.414Z,32.96
2023-04-21T12:25:18.524Z,33.06
2023-04-21T12:26:18.437Z,33.08
2023-04-21T12:27:18.485Z,33.29
2023-04-21T12:28:18.437Z,33.43
2023-04-21T12:29:18.452Z,33.53
2023-04-21T12:30:18.466Z,33.58
2023-04-21T12:31:18.476Z,33.71
2023-04-21T12:32:19.183Z,33.81
2023-04-21T12:33:18.565Z,33.90
2023-04-21T12:34:18.465Z,34.05
2023-04-21T12:35:18.457Z,34.06
2023-04-21T12:36:18.487Z,34.22
2023-04-21T12:37:18.525Z,34.33
2023-04-21T12:38:18.489Z,34.48
2023-04-21T12:39:18.491Z,34.56
2023-04-21T12:40:18.497Z,34.63
2023-04-21T12:41:18.506Z,34.78
2023-04-21T12:42:18.537Z,34.86
2023-04-21T12:43:18.506Z,35.01
2023-04-21T12:44:18.514Z,34.99
2023-04-21T12:45:18.531Z,35.08
2023-04-21T12:46:18.550Z,35.20
2023-04-21T12:47:18.547Z,35.28
2023-04-21T12:48:18.582Z,35.40
2023-04-21T12:49:18.555Z,35.39
2023-04-21T12:50:18.596Z,35.50
2023-04-21T12:51:18.612Z,35.55
2023-04-21T12:52:18.586Z,35.65
2023-04-21T12:53:18.606Z,35.71
2023-04-21T12:54:18.585Z,35.84
2023-04-21T12:55:18.595Z,35.87
2023-04-21T12:56:18.599Z,35.94
2023-04-21T12:57:18.632Z,36.05
2023-04-21T12:58:18.634Z,36.05
2023-04-21T12:59:18.616Z,35.99
2023-04-21T13:00:18.631Z,35.87
2023-04-21T13:01:18.721Z,35.96
2023-04-21T13:02:18.798Z,36.02
2023-04-21T13:03:18.737Z,36.01
2023-04-21T13:04:18.988Z,35.94
2023-04-21T13:05:18.710Z,36.01
2023-04-21T13:06:18.671Z,36.17
2023-04-21T13:07:18.678Z,36.24
2023-04-21T13:08:18.699Z,36.19
2023-04-21T13:09:18.750Z,36.09
2023-04-21T13:10:18.700Z,35.77
2023-04-21T13:11:18.736Z,35.57
2023-04-21T13:12:18.738Z,35.34
2023-04-21T13:13:18.707Z,35.45
2023-04-21T13:14:18.766Z,35.55
2023-04-21T13:15:18.747Z,35.69
2023-04-21T13:16:18.800Z,35.84
2023-04-21T13:17:18.892Z,35.94
2023-04-21T13:18:18.763Z,36.06
2023-04-21T13:19:18.761Z,36.14
2023-04-21T13:20:18.783Z,36.21
2023-04-21T13:21:18.792Z,36.28
2023-04-21T13:22:18.795Z,36.34
2023-04-21T13:23:18.785Z,36.37
2023-04-21T13:24:18.809Z,36.47
2023-04-21T13:25:18.866Z,36.52
2023-04-21T13:26:18.831Z,36.55
2023-04-21T13:27:18.831Z,36.58
2023-04-21T13:28:18.823Z,36.63
2023-04-21T13:29:18.860Z,36.75
2023-04-21T13:30:18.844Z,36.81
2023-04-21T13:31:18.957Z,36.75
2023-04-21T13:32:18.872Z,36.90
2023-04-21T13:33:18.900Z,36.97
2023-04-21T13:34:18.921Z,36.97
2023-04-21T13:35:18.882Z,37.04
2023-04-21T13:36:18.986Z,37.05
2023-04-21T13:37:18.955Z,37.09
2023-04-21T13:38:18.908Z,37.08
2023-04-21T13:40:51.546Z,37.17
2023-04-21T13:41:53.998Z,37.23
2023-04-21T13:42:51.521Z,37.27
2023-04-21T13:43:51.550Z,37.29
2023-04-21T13:44:51.554Z,37.19
2023-04-21T13:45:51.605Z,37.36
2023-04-21T13:46:51.605Z,37.33
2023-04-21T13:47:51.641Z,37.39
2023-04-21T13:48:51.677Z,37.48
2023-04-21T13:49:51.604Z,37.36
2023-04-21T13:50:51.603Z,37.48
2023-04-21T13:51:51.656Z,37.45
2023-04-21T13:52:51.634Z,37.53
2023-04-21T13:53:51.636Z,37.59
2023-04-21T13:54:51.626Z,37.46
2023-04-21T13:55:51.652Z,37.65
2023-04-21T13:56:51.701Z,37.65
2023-04-21T13:57:51.666Z,37.62
2023-04-21T13:58:51.692Z,37.65
2023-04-21T13:59:51.675Z,37.65
2023-04-21T14:00:51.691Z,37.72
2023-04-21T14:01:51.732Z,37.62
2023-04-21T14:02:51.881Z,37.65
2023-04-21T14:03:52.004Z,37.69
2023-04-21T14:04:51.810Z,37.79
2023-04-21T14:05:51.860Z,37.75
2023-04-21T14:06:51.734Z,37.74
2023-04-21T14:07:51.798Z,37.75
2023-04-21T14:08:51.765Z,37.76
2023-04-21T14:09:51.787Z,37.75
2023-04-21T14:10:51.789Z,37.75
2023-04-21T14:11:51.788Z,37.76
2023-04-21T14:12:51.840Z,37.80
2023-04-21T14:14:04.860Z,37.74
2023-04-21T14:14:51.862Z,37.68
2023-04-21T14:15:51.849Z,37.62
2023-04-21T14:16:51.851Z,37.62
2023-04-21T14:17:51.879Z,37.53
2023-04-21T14:18:51.890Z,37.33
2023-04-21T14:19:54.397Z,37.02
2023-04-21T14:20:51.874Z,36.99
2023-04-21T14:21:51.917Z,36.96
2023-04-21T14:22:51.891Z,36.80
2023-04-21T14:23:51.883Z,36.53
2023-04-21T14:24:51.965Z,36.47
2023-04-21T14:25:53.081Z,36.34
2023-04-21T14:26:51.921Z,36.24
2023-04-21T14:27:51.972Z,36.24
2023-04-21T14:28:51.931Z,36.28
2023-04-21T14:29:51.930Z,36.30
2023-04-21T14:30:52.043Z,36.32
2023-04-21T14:31:52.014Z,36.18
2023-04-21T14:32:51.978Z,35.90
2023-04-21T14:33:51.960Z,35.61
2023-04-21T14:34:51.996Z,35.35
2023-04-21T14:35:52.012Z,35.23
2023-04-21T14:36:52.030Z,35.38
2023-04-21T14:37:53.973Z,35.28
2023-04-21T14:38:51.994Z,35.26
2023-04-21T14:39:51.995Z,35.26
2023-04-21T14:40:52.043Z,35.26
2023-04-21T14:41:52.226Z,35.11
2023-04-21T14:42:52.052Z,35.02
2023-04-21T14:43:52.029Z,35.09
2023-04-21T14:44:52.095Z,35.20
2023-04-21T14:45:52.129Z,35.26
2023-04-21T14:47:05.742Z,35.27
2023-04-21T14:47:52.147Z,35.33
2023-04-21T14:48:52.052Z,35.35
2023-04-21T14:49:53.979Z,35.28
2023-04-21T14:50:52.095Z,35.18
2023-04-21T14:51:52.109Z,35.21
2023-04-21T14:52:52.088Z,35.06
2023-04-21T14:53:52.134Z,34.91
2023-04-21T14:54:52.085Z,34.90
2023-04-21T14:55:54.296Z,34.93
2023-04-21T14:56:58.092Z,34.97
2023-04-21T14:57:52.118Z,35.04
2023-04-21T14:58:52.187Z,34.94
2023-04-21T14:59:52.159Z,34.87
2023-04-21T15:00:52.263Z,34.86
2023-04-21T15:01:52.184Z,34.83
2023-04-21T15:02:52.213Z,34.83
2023-04-21T15:03:52.404Z,34.90
2023-04-21T15:04:52.251Z,34.90
2023-04-21T15:05:52.262Z,34.90
2023-04-21T15:06:52.292Z,34.83
2023-04-21T15:07:52.160Z,34.87
2023-04-21T15:08:52.245Z,34.83
2023-04-21T15:09:52.235Z,34.84
2023-04-21T15:10:52.268Z,34.78
2023-04-21T15:11:52.241Z,34.71
2023-04-21T15:12:52.237Z,34.45
2023-04-21T15:13:52.247Z,34.39
2023-04-21T15:14:52.256Z,34.34
2023-04-21T15:15:52.264Z,34.14
2023-04-21T15:16:52.289Z,33.89
2023-04-21T15:17:52.358Z,33.65
2023-04-21T15:18:52.275Z,33.36
2023-04-21T15:19:52.238Z,33.24
2023-04-21T15:20:52.274Z,33.11
2023-04-21T15:21:52.252Z,33.01
2023-04-21T15:22:52.269Z,32.79
2023-04-21T15:23:52.267Z,32.76
2023-04-21T15:24:54.371Z,32.59
2023-04-21T15:25:52.274Z,32.53
2023-04-21T15:26:52.311Z,32.56
2023-04-21T15:27:52.297Z,32.43
2023-04-21T15:28:52.388Z,32.30
2023-04-21T15:29:52.320Z,32.27
2023-04-21T15:30:52.330Z,32.13
2023-04-21T15:31:52.310Z,32.06
2023-04-21T15:32:52.392Z,31.93
2023-04-21T15:33:52.326Z,31.74
2023-04-21T15:34:52.320Z,31.56
2023-04-21T15:35:52.346Z,31.38
2023-04-21T15:36:52.329Z,31.19
2023-04-21T15:37:52.354Z,31.06
2023-04-21T15:38:52.359Z,30.86
2023-04-21T15:39:52.354Z,30.84
2023-04-21T15:41:00.595Z,30.70
2023-04-21T15:41:52.433Z,30.59
2023-04-21T15:42:52.398Z,30.39
2023-04-21T15:43:52.375Z,30.31
2023-04-21T15:44:52.350Z,30.24
2023-04-21T15:45:52.400Z,30.13
2023-04-21T15:46:52.515Z,30.03
2023-04-21T15:47:52.560Z,29.92
2023-04-21T15:48:52.406Z,29.81
2023-04-21T15:49:52.430Z,29.69
2023-04-21T15:50:52.394Z,29.57
2023-04-21T15:51:52.459Z,29.51
2023-04-21T15:52:52.387Z,29.38
2023-04-21T15:53:52.387Z,29.36
2023-04-21T15:54:52.417Z,29.20
2023-04-21T15:55:52.399Z,29.06
2023-04-21T15:56:52.490Z,29.01
2023-04-21T15:57:52.380Z,28.90
2023-04-21T15:58:52.394Z,28.86
2023-04-21T15:59:52.399Z,28.75
2023-04-21T16:00:52.436Z,28.67
2023-04-21T16:12:20.051Z,27.72
2023-04-21T16:13:20.046Z,27.57
2023-04-21T16:14:20.135Z,27.59
2023-04-21T16:15:24.474Z,27.48
2023-04-21T16:16:20.133Z,27.45
2023-04-21T16:17:20.017Z,27.36
2023-04-21T16:18:20.108Z,27.31
2023-04-21T16:19:20.072Z,27.19
2023-04-21T16:20:20.069Z,27.21
2023-04-21T16:21:20.150Z,27.15
2023-04-21T16:22:20.051Z,27.04
2023-04-21T16:23:19.993Z,26.87
2023-04-21T16:24:20.052Z,26.94
2023-04-21T16:25:20.121Z,26.86
2023-04-21T16:26:20.016Z,26.84
2023-04-21T16:27:20.018Z,26.75
2023-04-21T16:28:20.113Z,26.68
2023-04-21T16:29:20.011Z,26.69
2023-04-21T16:30:20.084Z,26.59
2023-04-21T16:31:20.063Z,26.53
2023-04-21T16:32:20.100Z,26.49
2023-04-21T16:33:19.997Z,26.45
2023-04-21T16:34:20.035Z,26.31
2023-04-21T16:35:20.050Z,26.32
2023-04-21T16:36:20.001Z,26.34
2023-04-21T16:37:20.086Z,26.35
2023-04-21T16:38:20.072Z,26.27
2023-04-21T16:39:20.051Z,26.20
2023-04-21T16:40:20.110Z,26.19
2023-04-21T16:41:21.179Z,26.15
2023-04-21T16:42:20.045Z,26.11
2023-04-21T16:43:20.017Z,25.99
2023-04-21T16:44:20.057Z,25.97
2023-04-21T16:45:20.002Z,25.91
2023-04-21T16:46:20.092Z,25.88
2023-04-21T16:47:20.033Z,25.78
2023-04-21T16:48:20.122Z,25.81
2023-04-21T16:49:20.020Z,25.81
2023-04-21T16:50:20.067Z,25.70
2023-04-21T16:51:20.008Z,25.74
2023-04-21T16:52:19.997Z,25.69
2023-04-21T16:53:19.995Z,25.64
2023-04-21T16:54:20.016Z,25.60
2023-04-21T16:55:19.993Z,25.64
2023-04-21T16:56:20.023Z,25.60
2023-04-21T16:57:20.020Z,25.45
2023-04-21T16:58:19.982Z,25.41
2023-04-21T16:59:20.018Z,25.38
2023-04-21T17:00:20.013Z,25.47
2023-04-21T17:01:20.058Z,25.32
2023-04-21T17:02:20.148Z,25.38
2023-04-21T17:03:20.281Z,25.32
2023-04-21T17:04:20.028Z,25.29
2023-04-21T17:05:20.020Z,25.26
2023-04-21T17:06:20.019Z,25.29
2023-04-21T17:07:20.021Z,25.19
2023-04-21T17:08:19.987Z,25.14
2023-04-21T17:09:19.980Z,25.11
2023-04-21T17:10:19.988Z,25.07
2023-04-21T17:11:19.989Z,25.01
2023-04-21T17:12:19.979Z,25.11
2023-04-21T17:13:19.972Z,25.00
2023-04-21T17:14:19.976Z,25.02
2023-04-21T17:15:19.978Z,25.02
2023-04-21T17:16:20.088Z,24.97
2023-04-21T17:17:19.986Z,25.00
2023-04-21T17:18:20.007Z,24.87
2023-04-21T17:19:19.988Z,24.86
2023-04-21T17:20:20.001Z,24.78